createdAt,value
2022-12-09T00:00:52.482Z,52.3
2022-12-09T00:06:11.093Z,52.2
2022-12-09T00:11:30.085Z,51.7
2022-12-09T00:16:32.920Z,52.5
2022-12-09T00:21:51.760Z,52.6
2022-12-09T00:27:10.579Z,52.1
2022-12-09T00:32:28.795Z,51.9
2022-12-09T00:37:47.592Z,52.7
2022-12-09T00:43:06.017Z,52.7
2022-12-09T00:48:24.797Z,52.7
2022-12-09T00:53:44.005Z,52.2
2022-12-09T00:59:02.998Z,52.8
2022-12-09T01:04:21.690Z,52.7
2022-12-09T01:09:40.802Z,52.2
2022-12-09T01:14:59.372Z,52.4
2022-12-09T01:20:17.845Z,53.1
2022-12-09T01:25:36.972Z,52.4
2022-12-09T01:30:55.493Z,52.1
2022-12-09T01:36:14.425Z,53
2022-12-09T01:41:32.939Z,53
2022-12-09T01:46:51.417Z,52.9
2022-12-09T01:52:10.353Z,52.2
2022-12-09T01:57:29.018Z,52.1
2022-12-09T02:02:48.847Z,52.5
2022-12-09T02:08:07.699Z,52.5
2022-12-09T02:13:26.289Z,52.4
2022-12-09T02:18:44.954Z,52.5
2022-12-09T02:24:03.671Z,52.7
2022-12-09T02:29:22.287Z,52.4
2022-12-09T02:34:41.256Z,52.4
2022-12-09T02:40:00.074Z,52.3
2022-12-09T02:45:18.542Z,53.2
2022-12-09T02:50:37.610Z,52.4
2022-12-09T02:55:55.820Z,52.9
2022-12-09T03:01:15.328Z,53
2022-12-09T03:06:34.268Z,53.1
2022-12-09T03:11:53.107Z,52.6
2022-12-09T03:17:12.329Z,52.3
2022-12-09T03:22:31.387Z,53.1
2022-12-09T03:27:50.492Z,53.2
2022-12-09T03:33:09.895Z,52.9
2022-12-09T03:38:29.394Z,52.3
2022-12-09T03:43:48.145Z,53
2022-12-09T03:49:06.867Z,52.8
2022-12-09T03:54:25.835Z,52.3
2022-12-09T03:59:45.132Z,53.2
2022-12-09T04:05:04.367Z,52.3
2022-12-09T04:10:23.780Z,53.2
2022-12-09T04:15:42.568Z,53.3
2022-12-09T04:21:01.363Z,53.6
2022-12-09T04:26:20.489Z,53
2022-12-09T04:31:39.950Z,53
2022-12-09T04:36:58.706Z,53.8
2022-12-09T04:42:17.701Z,53.4
2022-12-09T04:47:37.404Z,53.2
2022-12-09T04:52:56.166Z,52.9
2022-12-09T04:58:14.925Z,53.7
2022-12-09T05:03:34.520Z,53.4
2022-12-09T05:08:54.097Z,53.4
2022-12-09T05:14:13.067Z,52.6
2022-12-09T05:19:32.212Z,52.3
2022-12-09T05:24:51.414Z,53.4
2022-12-09T05:30:11.894Z,53.2
2022-12-09T05:35:31.056Z,53
2022-12-09T05:40:50.664Z,53
2022-12-09T05:46:10.053Z,52.7
2022-12-09T05:51:30.002Z,52.5
2022-12-09T05:56:49.921Z,52.7
2022-12-09T06:02:11.630Z,53
2022-12-09T06:07:31.150Z,52.8
2022-12-09T06:12:50.146Z,52.6
2022-12-09T06:18:09.233Z,51.9
2022-12-09T06:23:28.775Z,52.1
2022-12-09T06:28:48.071Z,51.8
2022-12-09T06:34:07.604Z,52.2
2022-12-09T06:39:26.323Z,52.3
2022-12-09T06:44:45.458Z,51.5
2022-12-09T06:50:09.008Z,52.2
2022-12-09T06:55:28.089Z,52.4
2022-12-09T07:00:48.155Z,52.2
2022-12-09T07:06:07.248Z,51.4
2022-12-09T07:11:27.272Z,51.4
2022-12-09T07:16:46.877Z,52.1
2022-12-09T07:22:06.154Z,52.2
2022-12-09T07:27:25.089Z,51.7
2022-12-09T07:32:44.369Z,51.8
2022-12-09T07:38:03.664Z,52.1
2022-12-09T07:43:23.128Z,51.5
2022-12-09T07:48:43.430Z,51.4
2022-12-09T07:54:02.586Z,51.3
2022-12-09T07:59:21.705Z,52.1
2022-12-09T08:04:41.457Z,51.2
2022-12-09T08:10:01.152Z,51.7
2022-12-09T08:15:20.139Z,51.9
2022-12-09T08:20:39.609Z,51.2
2022-12-09T08:25:58.751Z,51.3
2022-12-09T08:31:18.594Z,51.1
2022-12-09T08:36:38.563Z,51.2
2022-12-09T08:41:57.636Z,52.2
2022-12-09T08:47:17.175Z,46.9
2022-12-09T08:52:42.197Z,47.9
2022-12-09T08:58:01.519Z,48.2
2022-12-09T09:03:21.626Z,48.7
2022-12-09T09:08:40.955Z,48.1
2022-12-09T09:14:00.353Z,49.7
2022-12-09T09:19:23.502Z,50.1
2022-12-09T09:24:42.998Z,49.1
2022-12-09T09:30:02.209Z,50.3
2022-12-09T09:35:22.145Z,49.3
2022-12-09T09:40:41.442Z,49.7
2022-12-09T09:46:01.081Z,49.7
2022-12-09T09:51:20.524Z,50.6
2022-12-09T09:56:39.714Z,49.8
2022-12-09T10:02:00.284Z,50.5
2022-12-09T10:07:20.983Z,50.6
2022-12-09T10:12:41.436Z,49.7
2022-12-09T10:18:00.697Z,49.8
2022-12-09T10:23:20.774Z,50.5
2022-12-09T10:28:39.837Z,50.6
2022-12-09T10:33:59.792Z,50.5
2022-12-09T10:39:18.973Z,50.9
2022-12-09T10:44:38.195Z,50.7
2022-12-09T10:49:57.697Z,51
2022-12-09T10:55:16.521Z,50.8
2022-12-09T11:00:36.522Z,50.7
2022-12-09T11:05:56.320Z,50.8
2022-12-09T11:11:16.259Z,49.6
2022-12-09T11:16:36.333Z,50.9
2022-12-09T11:21:56.208Z,50.1
2022-12-09T11:27:15.463Z,51
2022-12-09T11:32:34.745Z,50.3
2022-12-09T11:37:53.324Z,51.1
2022-12-09T11:43:11.251Z,51
2022-12-09T11:48:44.156Z,50.3
2022-12-09T11:54:04.503Z,50.6
2022-12-09T11:59:23.000Z,51.1
2022-12-09T12:04:41.531Z,50.5
2022-12-09T12:09:59.987Z,50.6
2022-12-09T12:15:18.482Z,51.2
2022-12-09T12:20:37.002Z,50.5
2022-12-09T12:25:55.445Z,50.7
2022-12-09T12:31:13.939Z,50.4
2022-12-09T12:36:32.468Z,50.5
2022-12-09T12:41:50.943Z,50.8
2022-12-09T12:47:09.697Z,50.4
2022-12-09T12:52:57.384Z,51
2022-12-09T12:58:15.974Z,51.1
2022-12-09T13:03:34.761Z,51.3
2022-12-09T13:08:55.093Z,51.3
2022-12-09T13:14:14.209Z,51.1
2022-12-09T13:19:32.704Z,51.3
2022-12-09T13:25:00.659Z,50.7
2022-12-09T13:30:19.183Z,51.1
2022-12-09T13:35:37.935Z,50.5
2022-12-09T13:40:56.991Z,50.5
2022-12-09T13:46:15.684Z,51.3
2022-12-09T13:51:34.213Z,50.5
2022-12-09T13:56:52.475Z,50.6
2022-12-09T14:02:11.156Z,50.5
2022-12-09T14:07:29.058Z,51.3
2022-12-09T14:12:47.833Z,51.4
2022-12-09T14:18:06.594Z,51.2
2022-12-09T14:23:25.068Z,50.5
2022-12-09T14:28:43.344Z,48.6
2022-12-09T14:34:01.839Z,50.1
2022-12-09T14:39:25.814Z,49.8
2022-12-09T14:44:44.136Z,50.6
2022-12-09T14:50:02.294Z,50.7
2022-12-09T14:55:20.781Z,50.4
2022-12-09T15:00:39.327Z,50
2022-12-09T15:05:57.784Z,51.1
2022-12-09T15:11:16.272Z,50.8
2022-12-09T15:16:35.093Z,51
2022-12-09T15:21:53.902Z,50.7
2022-12-09T15:27:12.649Z,50.2
2022-12-09T15:32:31.453Z,50.4
2022-12-09T15:37:49.627Z,51
2022-12-09T15:43:08.154Z,51.3
2022-12-09T15:48:26.801Z,51
2022-12-09T15:53:44.977Z,49.8
2022-12-09T15:59:03.775Z,49.6
2022-12-09T16:04:22.567Z,50.7
2022-12-09T16:09:41.021Z,50.6
2022-12-09T16:14:59.235Z,50.3
2022-12-09T16:20:17.465Z,51.1
2022-12-09T16:25:35.658Z,51.1
2022-12-09T16:30:53.573Z,50.7
2022-12-09T16:36:12.107Z,50.7
2022-12-09T16:41:30.303Z,51.5
2022-12-09T16:46:49.068Z,51.2
2022-12-09T16:52:07.744Z,51.5
2022-12-09T16:57:26.189Z,51.1
2022-12-09T17:02:44.959Z,50.8
2022-12-09T17:08:03.674Z,51.7
2022-12-09T17:13:22.252Z,51.1
2022-12-09T17:18:40.451Z,50.8
2022-12-09T17:23:58.753Z,50.8
2022-12-09T17:29:16.942Z,51.1
2022-12-09T17:34:35.424Z,51.5
2022-12-09T17:40:04.203Z,51.4
2022-12-09T17:45:22.799Z,51.7
2022-12-09T17:50:41.243Z,51
2022-12-09T17:55:59.497Z,51.5
2022-12-09T18:01:17.895Z,51
2022-12-09T18:06:36.142Z,51
2022-12-09T18:11:54.673Z,50.9
2022-12-09T18:17:13.187Z,51.6
2022-12-09T18:22:31.386Z,50.9
2022-12-09T18:27:49.676Z,51.2
2022-12-09T18:32:52.857Z,51.3
2022-12-09T18:38:13.632Z,51.6
2022-12-09T18:43:32.141Z,51.7
2022-12-09T18:48:50.301Z,50.9
2022-12-09T18:54:08.800Z,50.8
2022-12-09T18:59:11.845Z,50.9
2022-12-09T19:04:30.397Z,50.9
2022-12-09T19:09:48.583Z,51.7
2022-12-09T19:15:07.112Z,50.3
2022-12-09T19:20:25.305Z,52.2
2022-12-09T19:25:43.223Z,51.5
2022-12-09T19:31:01.725Z,52.2
2022-12-09T19:36:19.945Z,51.9
2022-12-09T19:41:38.134Z,52.1
2022-12-09T19:46:56.936Z,52
2022-12-09T19:52:15.449Z,52.1
2022-12-09T19:57:33.927Z,51.5
2022-12-09T20:02:52.491Z,51.4
2022-12-09T20:08:11.284Z,52.3
2022-12-09T20:13:32.807Z,52.5
2022-12-09T20:18:51.391Z,52.5
2022-12-09T20:24:09.850Z,52.5
2022-12-09T20:29:12.999Z,52.8
2022-12-09T20:34:31.877Z,52.8
2022-12-09T20:39:50.192Z,52.2
2022-12-09T20:45:08.680Z,52.9
2022-12-09T20:50:26.920Z,52.4
2022-12-09T20:55:45.442Z,52.1
2022-12-09T21:01:03.955Z,52.9
2022-12-09T21:06:21.902Z,52.8
2022-12-09T21:11:40.081Z,52.4
2022-12-09T21:16:58.844Z,52.8
2022-12-09T21:22:17.080Z,52.1
2022-12-09T21:27:35.543Z,52.7
2022-12-09T21:32:54.047Z,52.4
2022-12-09T21:38:12.293Z,51.9
2022-12-09T21:43:30.764Z,51.3
2022-12-09T21:49:00.081Z,52.2
2022-12-09T21:54:20.055Z,52.2
2022-12-09T21:59:38.239Z,51.8
2022-12-09T22:04:56.168Z,52
2022-12-09T22:10:14.684Z,52.5
2022-12-09T22:15:33.142Z,52.6
2022-12-09T22:21:26.880Z,53.1
2022-12-09T22:26:45.820Z,53.1
2022-12-09T22:32:03.995Z,53
2022-12-09T22:37:44.872Z,52.6
2022-12-09T22:43:02.847Z,52.6
2022-12-09T22:48:21.255Z,53.3
2022-12-09T22:53:40.006Z,52.6
2022-12-09T22:58:58.329Z,52.7
2022-12-09T23:04:16.796Z,52.9
2022-12-09T23:09:35.301Z,52.6
2022-12-09T23:14:53.263Z,52.8
2022-12-09T23:20:11.167Z,53.3
2022-12-09T23:25:29.372Z,52.5
2022-12-09T23:30:48.350Z,53.5
2022-12-09T23:36:06.841Z,53.4
2022-12-09T23:41:25.608Z,52.8
2022-12-09T23:46:44.115Z,53.4
2022-12-09T23:52:02.350Z,52.7
2022-12-09T23:57:20.554Z,53.4
